Hauptseite
METAR-TAF:

METAR-TAF

Flughäfen :

Flughafen Zadar

Zadar, Kroatien

Breite: 44-06N, Länge: 015-21E, Höhe: 82 m

Beobachtung

Neuester Wetterbericht von vor 22 Minuten, um 18:00 UTC
Wind 5 kt aus Nord/Nordwest
Temperatur 27°C
Luftfeuchtigkeit 51%
Luftdruck 1017 hPa
Sichtweite 10 km oder mehr
keine Wolken unter 1500 m und keine Kumulonimbus oder Gewitterwolken

METAR: LDZD 181800Z 33005KT CAVOK 27/16 Q1017 NOSIG

Zeit: 20:22 (18:22 UTC)

Prognose

Neuester Wetterbericht von vor 57 Minuten, um 17:25 UTC
Gültige Prognose vom 18 um 18 UTC bis 19 um 18 UTC
Wind 2 kt aus unterschiedlichen Richtungen
Sichtweite 10 km oder mehr
keine Wolken unter 1500 m und keine Kumulonimbus oder Gewitterwolken
Zeitweise
vom 19 um 10 UTC bis 19 um 16 UTC
Wind 7 kt aus Südwest

TAF: LDZD 181725Z 1818/1918 VRB02KT CAVOK TX34/1914Z TN15/1903Z TEMPO 1910/1916 23007KT

Wetterbeobachtungen und Prognosen von mehr als 4000 Flughäfen (METAR und TAF Bericht).

Die verfügbaren Stationen werden durch gelbe und rote Markierungen auf der Karte dargestellt.

Führen Sie die Maus auf sie, um den Namen der Station zu sehen.

Darauf klicken, um die Beobachtung von Wetterbeobachtungen und Prognosen zu sehen.

Um die Karte zu ändern : klicken Sie auf den grünen Tasten mit einem schwarzen Kreuz Zum Vergrößern, auf den grünen Button mit einem Gedankenstrich zu verkleinern, oder auf die grünen Pfeile für benachbarte Karten.


METAR-TAF: